sensor_id;sensor_type;location;lat;lon;timestamp;temperature;humidity
15700;DHT22;7950;42.744;23.174;2023-03-16T00:01:13;3.20;99.90
15700;DHT22;7950;42.744;23.174;2023-03-16T00:03:42;3.20;99.90
15700;DHT22;7950;42.744;23.174;2023-03-16T00:06:12;3.20;99.90
15700;DHT22;7950;42.744;23.174;2023-03-16T00:08:40;3.20;99.90
15700;DHT22;7950;42.744;23.174;2023-03-16T00:11:10;3.20;99.90
15700;DHT22;7950;42.744;23.174;2023-03-16T00:13:39;3.20;99.90
15700;DHT22;7950;42.744;23.174;2023-03-16T00:16:08;3.10;99.90
15700;DHT22;7950;42.744;23.174;2023-03-16T00:19:21;3.20;99.90
15700;DHT22;7950;42.744;23.174;2023-03-16T00:21:51;3.20;99.90
15700;DHT22;7950;42.744;23.174;2023-03-16T00:24:19;3.20;99.90
15700;DHT22;7950;42.744;23.174;2023-03-16T00:26:50;3.20;99.90
15700;DHT22;7950;42.744;23.174;2023-03-16T00:29:20;3.20;99.90
15700;DHT22;7950;42.744;23.174;2023-03-16T00:31:49;3.20;99.90
15700;DHT22;7950;42.744;23.174;2023-03-16T00:34:18;3.20;99.90
15700;DHT22;7950;42.744;23.174;2023-03-16T00:36:46;3.20;99.90
15700;DHT22;7950;42.744;23.174;2023-03-16T00:39:16;3.20;99.90
15700;DHT22;7950;42.744;23.174;2023-03-16T00:41:44;3.20;99.90
15700;DHT22;7950;42.744;23.174;2023-03-16T00:44:12;3.20;99.90
15700;DHT22;7950;42.744;23.174;2023-03-16T00:46:40;3.20;99.90
15700;DHT22;7950;42.744;23.174;2023-03-16T00:49:09;3.20;99.90
15700;DHT22;7950;42.744;23.174;2023-03-16T00:51:38;3.10;99.90
15700;DHT22;7950;42.744;23.174;2023-03-16T00:54:06;3.10;99.90
15700;DHT22;7950;42.744;23.174;2023-03-16T00:57:00;3.10;99.90
15700;DHT22;7950;42.744;23.174;2023-03-16T00:59:30;3.10;99.90
15700;DHT22;7950;42.744;23.174;2023-03-16T01:01:58;3.00;99.90
15700;DHT22;7950;42.744;23.174;2023-03-16T01:04:33;3.10;99.90
15700;DHT22;7950;42.744;23.174;2023-03-16T01:07:32;3.00;99.90
15700;DHT22;7950;42.744;23.174;2023-03-16T01:10:02;3.00;99.90
15700;DHT22;7950;42.744;23.174;2023-03-16T01:12:32;3.00;99.90
15700;DHT22;7950;42.744;23.174;2023-03-16T01:15:01;3.00;99.90
15700;DHT22;7950;42.744;23.174;2023-03-16T01:17:29;3.00;99.90
15700;DHT22;7950;42.744;23.174;2023-03-16T01:20:11;3.00;99.90
15700;DHT22;7950;42.744;23.174;2023-03-16T01:22:41;3.00;99.90
15700;DHT22;7950;42.744;23.174;2023-03-16T01:25:12;2.90;99.90
15700;DHT22;7950;42.744;23.174;2023-03-16T01:27:42;2.90;99.90
15700;DHT22;7950;42.744;23.174;2023-03-16T01:30:11;2.90;99.90
15700;DHT22;7950;42.744;23.174;2023-03-16T01:32:40;2.90;99.90
15700;DHT22;7950;42.744;23.174;2023-03-16T01:35:09;2.80;99.90
15700;DHT22;7950;42.744;23.174;2023-03-16T01:37:38;2.80;99.90
15700;DHT22;7950;42.744;23.174;2023-03-16T01:40:07;2.80;99.90
15700;DHT22;7950;42.744;23.174;2023-03-16T01:42:44;2.90;99.90
15700;DHT22;7950;42.744;23.174;2023-03-16T01:48:21;2.80;99.90
15700;DHT22;7950;42.744;23.174;2023-03-16T01:50:51;2.70;99.90
15700;DHT22;7950;42.744;23.174;2023-03-16T01:53:20;2.70;99.90
15700;DHT22;7950;42.744;23.174;2023-03-16T01:55:50;2.70;99.90
15700;DHT22;7950;42.744;23.174;2023-03-16T01:58:22;2.70;99.90
15700;DHT22;7950;42.744;23.174;2023-03-16T02:00:50;2.70;99.90
15700;DHT22;7950;42.744;23.174;2023-03-16T02:03:20;2.60;99.90
15700;DHT22;7950;42.744;23.174;2023-03-16T02:05:52;2.60;99.90
15700;DHT22;7950;42.744;23.174;2023-03-16T02:08:50;2.60;99.90
15700;DHT22;7950;42.744;23.174;2023-03-16T02:11:21;2.60;99.90
15700;DHT22;7950;42.744;23.174;2023-03-16T02:13:51;2.50;99.90
15700;DHT22;7950;42.744;23.174;2023-03-16T02:16:20;2.50;99.90
15700;DHT22;7950;42.744;23.174;2023-03-16T02:18:49;2.50;99.90
15700;DHT22;7950;42.744;23.174;2023-03-16T02:21:25;2.60;99.90
15700;DHT22;7950;42.744;23.174;2023-03-16T02:23:59;2.60;99.90
15700;DHT22;7950;42.744;23.174;2023-03-16T02:26:36;2.60;99.90
15700;DHT22;7950;42.744;23.174;2023-03-16T02:29:19;2.60;99.90
15700;DHT22;7950;42.744;23.174;2023-03-16T02:31:57;2.60;99.90
15700;DHT22;7950;42.744;23.174;2023-03-16T02:34:28;2.60;99.90
15700;DHT22;7950;42.744;23.174;2023-03-16T02:36:57;2.60;99.90
15700;DHT22;7950;42.744;23.174;2023-03-16T02:39:26;2.60;99.90
15700;DHT22;7950;42.744;23.174;2023-03-16T02:41:55;2.60;99.90
15700;DHT22;7950;42.744;23.174;2023-03-16T02:44:26;2.50;99.90
15700;DHT22;7950;42.744;23.174;2023-03-16T02:47:00;2.50;99.90
15700;DHT22;7950;42.744;23.174;2023-03-16T02:49:34;2.40;99.90
15700;DHT22;7950;42.744;23.174;2023-03-16T02:52:04;2.40;99.90
15700;DHT22;7950;42.744;23.174;2023-03-16T02:54:33;2.40;99.90
15700;DHT22;7950;42.744;23.174;2023-03-16T02:57:01;2.40;99.90
15700;DHT22;7950;42.744;23.174;2023-03-16T02:59:30;2.40;99.90
15700;DHT22;7950;42.744;23.174;2023-03-16T03:02:00;2.40;99.90
15700;DHT22;7950;42.744;23.174;2023-03-16T03:04:28;2.40;99.90
15700;DHT22;7950;42.744;23.174;2023-03-16T03:06:59;2.40;99.90
15700;DHT22;7950;42.744;23.174;2023-03-16T03:09:31;2.40;99.90
15700;DHT22;7950;42.744;23.174;2023-03-16T03:11:59;2.40;99.90
15700;DHT22;7950;42.744;23.174;2023-03-16T03:14:28;2.40;99.90
15700;DHT22;7950;42.744;23.174;2023-03-16T03:16:56;2.30;99.90
15700;DHT22;7950;42.744;23.174;2023-03-16T03:19:25;2.30;99.90
15700;DHT22;7950;42.744;23.174;2023-03-16T03:21:54;2.30;99.90
15700;DHT22;7950;42.744;23.174;2023-03-16T03:24:23;2.20;99.90
15700;DHT22;7950;42.744;23.174;2023-03-16T03:26:51;2.30;99.90
15700;DHT22;7950;42.744;23.174;2023-03-16T03:29:19;2.20;99.90
15700;DHT22;7950;42.744;23.174;2023-03-16T03:31:47;2.20;99.90
15700;DHT22;7950;42.744;23.174;2023-03-16T03:34:16;2.20;99.90
15700;DHT22;7950;42.744;23.174;2023-03-16T03:36:45;2.20;99.90
15700;DHT22;7950;42.744;23.174;2023-03-16T03:39:14;2.30;99.90
15700;DHT22;7950;42.744;23.174;2023-03-16T03:41:42;2.30;99.90
15700;DHT22;7950;42.744;23.174;2023-03-16T03:44:10;2.20;99.90
15700;DHT22;7950;42.744;23.174;2023-03-16T03:46:38;2.20;99.90
15700;DHT22;7950;42.744;23.174;2023-03-16T03:49:07;2.30;99.90
15700;DHT22;7950;42.744;23.174;2023-03-16T03:51:35;2.30;99.90
15700;DHT22;7950;42.744;23.174;2023-03-16T03:54:05;2.30;99.90
15700;DHT22;7950;42.744;23.174;2023-03-16T03:56:33;2.30;99.90
15700;DHT22;7950;42.744;23.174;2023-03-16T03:59:02;2.30;99.90
15700;DHT22;7950;42.744;23.174;2023-03-16T04:01:30;2.30;99.90
15700;DHT22;7950;42.744;23.174;2023-03-16T04:03:58;2.30;99.90
15700;DHT22;7950;42.744;23.174;2023-03-16T04:06:27;2.20;99.90
15700;DHT22;7950;42.744;23.174;2023-03-16T04:08:55;2.20;99.90
15700;DHT22;7950;42.744;23.174;2023-03-16T04:11:24;2.20;99.90
15700;DHT22;7950;42.744;23.174;2023-03-16T04:13:53;2.30;99.90
15700;DHT22;7950;42.744;23.174;2023-03-16T04:16:46;2.30;99.90
15700;DHT22;7950;42.744;23.174;2023-03-16T04:19:14;2.30;99.90
15700;DHT22;7950;42.744;23.174;2023-03-16T04:21:43;2.30;99.90
15700;DHT22;7950;42.744;23.174;2023-03-16T04:24:11;2.40;99.90
15700;DHT22;7950;42.744;23.174;2023-03-16T04:26:51;2.40;99.90
15700;DHT22;7950;42.744;23.174;2023-03-16T04:29:20;2.40;99.90
15700;DHT22;7950;42.744;23.174;2023-03-16T04:32:02;2.30;99.90
15700;DHT22;7950;42.744;23.174;2023-03-16T04:34:30;2.30;99.90
15700;DHT22;7950;42.744;23.174;2023-03-16T04:36:59;2.30;99.90
15700;DHT22;7950;42.744;23.174;2023-03-16T04:39:28;2.30;99.90
15700;DHT22;7950;42.744;23.174;2023-03-16T04:41:58;2.30;99.90
15700;DHT22;7950;42.744;23.174;2023-03-16T04:44:27;2.20;99.90
15700;DHT22;7950;42.744;23.174;2023-03-16T04:46:55;2.20;99.90
15700;DHT22;7950;42.744;23.174;2023-03-16T04:49:25;2.20;99.90
15700;DHT22;7950;42.744;23.174;2023-03-16T04:51:53;2.20;99.90
15700;DHT22;7950;42.744;23.174;2023-03-16T04:54:21;2.20;99.90
15700;DHT22;7950;42.744;23.174;2023-03-16T04:56:49;2.20;99.90
15700;DHT22;7950;42.744;23.174;2023-03-16T04:59:19;2.20;99.90
15700;DHT22;7950;42.744;23.174;2023-03-16T05:01:47;2.30;99.90
15700;DHT22;7950;42.744;23.174;2023-03-16T05:04:16;2.20;99.90
15700;DHT22;7950;42.744;23.174;2023-03-16T05:06:45;2.20;99.90
15700;DHT22;7950;42.744;23.174;2023-03-16T05:09:13;2.10;99.90
15700;DHT22;7950;42.744;23.174;2023-03-16T05:11:42;2.10;99.90
15700;DHT22;7950;42.744;23.174;2023-03-16T05:14:10;2.10;99.90
15700;DHT22;7950;42.744;23.174;2023-03-16T05:16:40;2.10;99.90
15700;DHT22;7950;42.744;23.174;2023-03-16T05:19:08;2.00;99.90
15700;DHT22;7950;42.744;23.174;2023-03-16T05:21:36;2.00;99.90
15700;DHT22;7950;42.744;23.174;2023-03-16T05:24:05;2.10;99.90
15700;DHT22;7950;42.744;23.174;2023-03-16T05:26:33;2.00;99.90
15700;DHT22;7950;42.744;23.174;2023-03-16T05:29:02;2.00;99.90
15700;DHT22;7950;42.744;23.174;2023-03-16T05:31:30;2.00;99.90
15700;DHT22;7950;42.744;23.174;2023-03-16T05:34:00;2.00;99.90
15700;DHT22;7950;42.744;23.174;2023-03-16T05:36:29;2.00;99.90
15700;DHT22;7950;42.744;23.174;2023-03-16T05:39:01;2.10;99.90
15700;DHT22;7950;42.744;23.174;2023-03-16T05:41:29;2.10;99.90
15700;DHT22;7950;42.744;23.174;2023-03-16T05:43:57;2.10;99.90
15700;DHT22;7950;42.744;23.174;2023-03-16T05:46:25;2.20;99.90
15700;DHT22;7950;42.744;23.174;2023-03-16T05:48:54;2.20;99.90
15700;DHT22;7950;42.744;23.174;2023-03-16T05:51:24;2.20;99.90
15700;DHT22;7950;42.744;23.174;2023-03-16T05:53:54;2.20;99.90
15700;DHT22;7950;42.744;23.174;2023-03-16T05:56:23;2.20;99.90
15700;DHT22;7950;42.744;23.174;2023-03-16T05:58:52;2.20;99.90
15700;DHT22;7950;42.744;23.174;2023-03-16T06:01:21;2.10;99.90
15700;DHT22;7950;42.744;23.174;2023-03-16T06:03:50;2.10;99.90
15700;DHT22;7950;42.744;23.174;2023-03-16T06:06:20;2.10;99.90
15700;DHT22;7950;42.744;23.174;2023-03-16T06:09:14;2.10;99.90
15700;DHT22;7950;42.744;23.174;2023-03-16T06:11:43;2.10;99.90
15700;DHT22;7950;42.744;23.174;2023-03-16T06:14:11;2.10;99.90
15700;DHT22;7950;42.744;23.174;2023-03-16T06:16:39;2.10;99.90
15700;DHT22;7950;42.744;23.174;2023-03-16T06:19:08;2.10;99.90
15700;DHT22;7950;42.744;23.174;2023-03-16T06:21:37;2.10;99.90
15700;DHT22;7950;42.744;23.174;2023-03-16T06:24:06;2.10;99.90
15700;DHT22;7950;42.744;23.174;2023-03-16T06:26:37;2.10;99.90
15700;DHT22;7950;42.744;23.174;2023-03-16T06:29:05;2.10;99.90
15700;DHT22;7950;42.744;23.174;2023-03-16T06:31:34;2.10;99.90
15700;DHT22;7950;42.744;23.174;2023-03-16T06:34:02;2.20;99.90
15700;DHT22;7950;42.744;23.174;2023-03-16T06:36:30;2.20;99.90
15700;DHT22;7950;42.744;23.174;2023-03-16T06:38:59;2.10;99.90
15700;DHT22;7950;42.744;23.174;2023-03-16T06:41:28;2.10;99.90
15700;DHT22;7950;42.744;23.174;2023-03-16T06:43:57;2.10;99.90
15700;DHT22;7950;42.744;23.174;2023-03-16T06:46:26;2.20;99.90
15700;DHT22;7950;42.744;23.174;2023-03-16T06:48:54;2.20;99.90
15700;DHT22;7950;42.744;23.174;2023-03-16T06:51:22;2.20;99.90
15700;DHT22;7950;42.744;23.174;2023-03-16T06:53:50;2.20;99.90
15700;DHT22;7950;42.744;23.174;2023-03-16T06:56:19;2.30;99.90
15700;DHT22;7950;42.744;23.174;2023-03-16T06:58:47;2.30;99.90
15700;DHT22;7950;42.744;23.174;2023-03-16T07:01:17;2.30;99.90
15700;DHT22;7950;42.744;23.174;2023-03-16T07:03:45;2.40;99.90
15700;DHT22;7950;42.744;23.174;2023-03-16T07:06:13;2.40;99.90
15700;DHT22;7950;42.744;23.174;2023-03-16T07:08:42;2.50;99.90
15700;DHT22;7950;42.744;23.174;2023-03-16T07:11:10;2.60;99.90
15700;DHT22;7950;42.744;23.174;2023-03-16T07:13:41;2.60;99.90
15700;DHT22;7950;42.744;23.174;2023-03-16T07:16:10;2.60;99.90
15700;DHT22;7950;42.744;23.174;2023-03-16T07:18:40;2.60;99.90
15700;DHT22;7950;42.744;23.174;2023-03-16T07:21:10;2.60;99.90
15700;DHT22;7950;42.744;23.174;2023-03-16T07:23:39;2.60;99.90
15700;DHT22;7950;42.744;23.174;2023-03-16T07:26:07;2.60;99.90
15700;DHT22;7950;42.744;23.174;2023-03-16T07:28:35;2.70;99.90
15700;DHT22;7950;42.744;23.174;2023-03-16T07:31:06;2.70;99.90
15700;DHT22;7950;42.744;23.174;2023-03-16T07:33:35;2.80;99.90
15700;DHT22;7950;42.744;23.174;2023-03-16T07:36:29;2.80;99.90
15700;DHT22;7950;42.744;23.174;2023-03-16T07:39:23;2.80;99.90
15700;DHT22;7950;42.744;23.174;2023-03-16T07:41:51;2.80;99.90
15700;DHT22;7950;42.744;23.174;2023-03-16T07:44:20;2.90;99.90
15700;DHT22;7950;42.744;23.174;2023-03-16T07:46:48;2.90;99.90
15700;DHT22;7950;42.744;23.174;2023-03-16T07:49:17;2.90;99.90
15700;DHT22;7950;42.744;23.174;2023-03-16T07:51:47;2.90;99.90
15700;DHT22;7950;42.744;23.174;2023-03-16T07:54:26;2.90;99.90
15700;DHT22;7950;42.744;23.174;2023-03-16T07:56:54;2.90;99.90
15700;DHT22;7950;42.744;23.174;2023-03-16T07:59:22;2.90;99.90
15700;DHT22;7950;42.744;23.174;2023-03-16T08:01:50;2.90;99.90
15700;DHT22;7950;42.744;23.174;2023-03-16T08:04:19;3.00;99.90
15700;DHT22;7950;42.744;23.174;2023-03-16T08:06:49;3.10;99.90
15700;DHT22;7950;42.744;23.174;2023-03-16T08:09:25;3.10;99.90
15700;DHT22;7950;42.744;23.174;2023-03-16T08:11:54;3.20;99.90
15700;DHT22;7950;42.744;23.174;2023-03-16T08:14:22;3.30;99.90
15700;DHT22;7950;42.744;23.174;2023-03-16T08:16:51;3.30;99.90
15700;DHT22;7950;42.744;23.174;2023-03-16T08:19:20;3.40;99.90
15700;DHT22;7950;42.744;23.174;2023-03-16T08:21:50;3.40;99.90
15700;DHT22;7950;42.744;23.174;2023-03-16T08:24:38;3.50;99.90
15700;DHT22;7950;42.744;23.174;2023-03-16T08:27:07;3.60;99.90
15700;DHT22;7950;42.744;23.174;2023-03-16T08:29:35;3.70;99.90
15700;DHT22;7950;42.744;23.174;2023-03-16T08:32:04;3.70;99.90
15700;DHT22;7950;42.744;23.174;2023-03-16T08:34:32;3.80;99.90
15700;DHT22;7950;42.744;23.174;2023-03-16T08:37:04;3.80;99.90
15700;DHT22;7950;42.744;23.174;2023-03-16T08:39:51;4.00;99.90
15700;DHT22;7950;42.744;23.174;2023-03-16T08:42:20;3.90;99.90
15700;DHT22;7950;42.744;23.174;2023-03-16T08:44:48;3.90;99.90
15700;DHT22;7950;42.744;23.174;2023-03-16T08:47:16;3.80;99.90
15700;DHT22;7950;42.744;23.174;2023-03-16T08:49:56;3.80;99.90
15700;DHT22;7950;42.744;23.174;2023-03-16T08:52:26;3.70;99.90
15700;DHT22;7950;42.744;23.174;2023-03-16T08:54:54;3.70;99.90
15700;DHT22;7950;42.744;23.174;2023-03-16T08:57:54;3.70;99.90
15700;DHT22;7950;42.744;23.174;2023-03-16T09:00:23;3.60;99.90
15700;DHT22;7950;42.744;23.174;2023-03-16T09:02:51;3.60;99.90
15700;DHT22;7950;42.744;23.174;2023-03-16T09:05:20;3.60;99.90
15700;DHT22;7950;42.744;23.174;2023-03-16T09:07:50;3.60;99.90
15700;DHT22;7950;42.744;23.174;2023-03-16T09:10:20;3.60;99.90
15700;DHT22;7950;42.744;23.174;2023-03-16T09:12:49;3.60;99.90
15700;DHT22;7950;42.744;23.174;2023-03-16T09:15:19;3.70;99.90
15700;DHT22;7950;42.744;23.174;2023-03-16T09:17:47;3.70;99.90
15700;DHT22;7950;42.744;23.174;2023-03-16T09:20:16;3.70;99.90
15700;DHT22;7950;42.744;23.174;2023-03-16T09:22:56;3.70;99.90
15700;DHT22;7950;42.744;23.174;2023-03-16T09:25:25;3.70;99.90
15700;DHT22;7950;42.744;23.174;2023-03-16T09:27:54;3.80;99.90
15700;DHT22;7950;42.744;23.174;2023-03-16T09:30:22;3.80;99.90
15700;DHT22;7950;42.744;23.174;2023-03-16T09:32:51;3.80;99.90
15700;DHT22;7950;42.744;23.174;2023-03-16T09:35:19;3.80;99.90
15700;DHT22;7950;42.744;23.174;2023-03-16T09:37:47;3.80;99.90
15700;DHT22;7950;42.744;23.174;2023-03-16T09:40:34;3.80;99.90
15700;DHT22;7950;42.744;23.174;2023-03-16T09:43:19;4.00;99.90
15700;DHT22;7950;42.744;23.174;2023-03-16T09:45:58;4.10;99.90
15700;DHT22;7950;42.744;23.174;2023-03-16T09:48:34;4.10;99.90
15700;DHT22;7950;42.744;23.174;2023-03-16T09:51:05;4.20;99.90
15700;DHT22;7950;42.744;23.174;2023-03-16T09:53:36;4.30;99.90
15700;DHT22;7950;42.744;23.174;2023-03-16T09:56:09;4.30;99.90
15700;DHT22;7950;42.744;23.174;2023-03-16T09:58:39;4.30;99.90
15700;DHT22;7950;42.744;23.174;2023-03-16T10:01:12;4.30;99.90
15700;DHT22;7950;42.744;23.174;2023-03-16T10:04:02;4.30;99.90
15700;DHT22;7950;42.744;23.174;2023-03-16T10:06:38;4.30;99.90
15700;DHT22;7950;42.744;23.174;2023-03-16T10:09:19;4.30;99.90
15700;DHT22;7950;42.744;23.174;2023-03-16T10:11:52;4.30;99.90
15700;DHT22;7950;42.744;23.174;2023-03-16T10:14:25;4.30;99.90
15700;DHT22;7950;42.744;23.174;2023-03-16T10:17:00;4.30;99.90
15700;DHT22;7950;42.744;23.174;2023-03-16T10:19:33;4.30;99.90
15700;DHT22;7950;42.744;23.174;2023-03-16T10:22:13;4.30;99.90
15700;DHT22;7950;42.744;23.174;2023-03-16T10:24:47;4.30;99.90
15700;DHT22;7950;42.744;23.174;2023-03-16T10:27:25;4.40;99.90
15700;DHT22;7950;42.744;23.174;2023-03-16T10:29:55;4.50;99.90
15700;DHT22;7950;42.744;23.174;2023-03-16T10:32:24;4.50;99.90
15700;DHT22;7950;42.744;23.174;2023-03-16T10:34:57;4.50;99.90
15700;DHT22;7950;42.744;23.174;2023-03-16T10:37:29;4.40;99.90
15700;DHT22;7950;42.744;23.174;2023-03-16T10:39:58;4.40;99.90
15700;DHT22;7950;42.744;23.174;2023-03-16T10:42:29;4.40;99.90
15700;DHT22;7950;42.744;23.174;2023-03-16T10:44:59;4.50;99.90
15700;DHT22;7950;42.744;23.174;2023-03-16T10:47:32;4.60;99.90
15700;DHT22;7950;42.744;23.174;2023-03-16T10:50:14;4.50;99.90
15700;DHT22;7950;42.744;23.174;2023-03-16T10:52:45;4.50;99.90
15700;DHT22;7950;42.744;23.174;2023-03-16T10:55:18;4.50;99.90
15700;DHT22;7950;42.744;23.174;2023-03-16T10:57:50;4.50;99.90
15700;DHT22;7950;42.744;23.174;2023-03-16T11:00:21;4.40;99.90
15700;DHT22;7950;42.744;23.174;2023-03-16T11:02:54;4.40;99.90
15700;DHT22;7950;42.744;23.174;2023-03-16T11:05:38;4.40;99.90
15700;DHT22;7950;42.744;23.174;2023-03-16T11:08:07;4.40;99.90
15700;DHT22;7950;42.744;23.174;2023-03-16T11:10:40;4.40;99.90
15700;DHT22;7950;42.744;23.174;2023-03-16T11:13:26;4.40;99.90
15700;DHT22;7950;42.744;23.174;2023-03-16T11:16:00;4.30;99.90
15700;DHT22;7950;42.744;23.174;2023-03-16T11:18:34;4.30;99.90
15700;DHT22;7950;42.744;23.174;2023-03-16T11:21:10;4.30;99.90
15700;DHT22;7950;42.744;23.174;2023-03-16T11:23:45;4.30;99.90
15700;DHT22;7950;42.744;23.174;2023-03-16T11:26:30;4.30;99.90
15700;DHT22;7950;42.744;23.174;2023-03-16T11:29:08;4.10;99.90
15700;DHT22;7950;42.744;23.174;2023-03-16T11:31:56;4.20;99.90
15700;DHT22;7950;42.744;23.174;2023-03-16T11:34:28;4.20;99.90
15700;DHT22;7950;42.744;23.174;2023-03-16T11:37:04;4.10;99.90
15700;DHT22;7950;42.744;23.174;2023-03-16T11:39:43;4.10;99.90
15700;DHT22;7950;42.744;23.174;2023-03-16T11:42:26;4.10;99.90
15700;DHT22;7950;42.744;23.174;2023-03-16T11:45:02;4.00;99.90
15700;DHT22;7950;42.744;23.174;2023-03-16T11:48:00;4.00;99.90
15700;DHT22;7950;42.744;23.174;2023-03-16T11:50:36;4.00;99.90
15700;DHT22;7950;42.744;23.174;2023-03-16T11:53:16;4.00;99.90
15700;DHT22;7950;42.744;23.174;2023-03-16T11:56:01;4.00;99.90
15700;DHT22;7950;42.744;23.174;2023-03-16T11:58:46;3.90;99.90
15700;DHT22;7950;42.744;23.174;2023-03-16T12:01:23;3.90;99.90
15700;DHT22;7950;42.744;23.174;2023-03-16T12:04:05;3.90;99.90
15700;DHT22;7950;42.744;23.174;2023-03-16T12:06:52;3.90;99.90
15700;DHT22;7950;42.744;23.174;2023-03-16T12:12:37;3.90;99.90
15700;DHT22;7950;42.744;23.174;2023-03-16T12:15:31;3.90;99.90
15700;DHT22;7950;42.744;23.174;2023-03-16T12:18:09;3.80;99.90
15700;DHT22;7950;42.744;23.174;2023-03-16T12:20:44;3.80;99.90
15700;DHT22;7950;42.744;23.174;2023-03-16T12:23:17;3.80;99.90
15700;DHT22;7950;42.744;23.174;2023-03-16T12:25:50;3.80;99.90
15700;DHT22;7950;42.744;23.174;2023-03-16T12:28:23;3.70;99.90
15700;DHT22;7950;42.744;23.174;2023-03-16T12:31:06;3.70;99.90
15700;DHT22;7950;42.744;23.174;2023-03-16T12:34:14;3.60;99.90
15700;DHT22;7950;42.744;23.174;2023-03-16T12:36:54;3.70;99.90
15700;DHT22;7950;42.744;23.174;2023-03-16T12:39:34;3.60;99.90
15700;DHT22;7950;42.744;23.174;2023-03-16T12:42:21;3.60;99.90
15700;DHT22;7950;42.744;23.174;2023-03-16T12:45:21;3.60;99.90
15700;DHT22;7950;42.744;23.174;2023-03-16T12:47:59;3.50;99.90
15700;DHT22;7950;42.744;23.174;2023-03-16T12:50:30;3.40;99.90
15700;DHT22;7950;42.744;23.174;2023-03-16T12:53:06;3.50;99.90
15700;DHT22;7950;42.744;23.174;2023-03-16T12:55:43;3.50;99.90
15700;DHT22;7950;42.744;23.174;2023-03-16T12:58:11;3.60;99.90
15700;DHT22;7950;42.744;23.174;2023-03-16T13:00:54;3.70;99.90
15700;DHT22;7950;42.744;23.174;2023-03-16T13:03:24;3.70;99.90
15700;DHT22;7950;42.744;23.174;2023-03-16T13:05:56;3.80;99.90
15700;DHT22;7950;42.744;23.174;2023-03-16T13:08:27;3.80;99.90
15700;DHT22;7950;42.744;23.174;2023-03-16T13:11:21;3.90;99.90
15700;DHT22;7950;42.744;23.174;2023-03-16T13:13:52;3.90;99.90
15700;DHT22;7950;42.744;23.174;2023-03-16T13:16:33;4.00;99.90
15700;DHT22;7950;42.744;23.174;2023-03-16T13:19:22;4.00;99.90
15700;DHT22;7950;42.744;23.174;2023-03-16T13:22:02;4.10;99.90
15700;DHT22;7950;42.744;23.174;2023-03-16T13:24:37;4.00;99.90
15700;DHT22;7950;42.744;23.174;2023-03-16T13:27:18;4.10;99.90
15700;DHT22;7950;42.744;23.174;2023-03-16T13:29:53;4.10;99.90
15700;DHT22;7950;42.744;23.174;2023-03-16T13:32:22;4.10;99.90
15700;DHT22;7950;42.744;23.174;2023-03-16T13:34:52;4.10;99.90
15700;DHT22;7950;42.744;23.174;2023-03-16T13:37:27;4.10;99.90
15700;DHT22;7950;42.744;23.174;2023-03-16T13:39:57;4.10;99.90
15700;DHT22;7950;42.744;23.174;2023-03-16T13:42:28;4.00;99.90
15700;DHT22;7950;42.744;23.174;2023-03-16T13:48:11;4.00;99.90
15700;DHT22;7950;42.744;23.174;2023-03-16T13:50:40;3.90;99.90
15700;DHT22;7950;42.744;23.174;2023-03-16T13:53:14;3.80;99.90
15700;DHT22;7950;42.744;23.174;2023-03-16T13:55:45;3.70;99.90
15700;DHT22;7950;42.744;23.174;2023-03-16T13:58:21;3.70;99.90
15700;DHT22;7950;42.744;23.174;2023-03-16T14:00:54;3.70;99.90
15700;DHT22;7950;42.744;23.174;2023-03-16T14:03:28;3.60;99.90
15700;DHT22;7950;42.744;23.174;2023-03-16T14:05:58;3.60;99.90
15700;DHT22;7950;42.744;23.174;2023-03-16T14:08:29;3.50;99.90
15700;DHT22;7950;42.744;23.174;2023-03-16T14:10:58;3.50;99.90
15700;DHT22;7950;42.744;23.174;2023-03-16T14:13:31;3.40;99.90
15700;DHT22;7950;42.744;23.174;2023-03-16T14:16:11;3.30;99.90
15700;DHT22;7950;42.744;23.174;2023-03-16T14:18:47;3.30;99.90
15700;DHT22;7950;42.744;23.174;2023-03-16T14:21:18;3.40;99.90
15700;DHT22;7950;42.744;23.174;2023-03-16T14:23:51;3.30;99.90
15700;DHT22;7950;42.744;23.174;2023-03-16T14:26:21;3.30;99.90
15700;DHT22;7950;42.744;23.174;2023-03-16T14:28:59;3.30;99.90
15700;DHT22;7950;42.744;23.174;2023-03-16T14:31:33;3.30;99.90
15700;DHT22;7950;42.744;23.174;2023-03-16T14:34:03;3.30;99.90
15700;DHT22;7950;42.744;23.174;2023-03-16T14:36:35;3.30;99.90
15700;DHT22;7950;42.744;23.174;2023-03-16T14:39:12;3.30;99.90
15700;DHT22;7950;42.744;23.174;2023-03-16T14:41:42;3.30;99.90
15700;DHT22;7950;42.744;23.174;2023-03-16T14:44:17;3.30;99.90
15700;DHT22;7950;42.744;23.174;2023-03-16T14:46:47;3.30;99.90
15700;DHT22;7950;42.744;23.174;2023-03-16T14:49:20;3.20;99.90
15700;DHT22;7950;42.744;23.174;2023-03-16T14:51:50;3.30;99.90
15700;DHT22;7950;42.744;23.174;2023-03-16T14:54:21;3.30;99.90
15700;DHT22;7950;42.744;23.174;2023-03-16T14:56:51;3.30;99.90
15700;DHT22;7950;42.744;23.174;2023-03-16T14:59:20;3.40;99.90
15700;DHT22;7950;42.744;23.174;2023-03-16T15:01:50;3.30;99.90
15700;DHT22;7950;42.744;23.174;2023-03-16T15:04:23;3.30;99.90
15700;DHT22;7950;42.744;23.174;2023-03-16T15:06:52;3.30;99.90
15700;DHT22;7950;42.744;23.174;2023-03-16T15:09:31;3.30;99.90
15700;DHT22;7950;42.744;23.174;2023-03-16T15:12:01;3.20;99.90
15700;DHT22;7950;42.744;23.174;2023-03-16T15:14:29;3.20;99.90
15700;DHT22;7950;42.744;23.174;2023-03-16T15:17:15;3.20;99.90
15700;DHT22;7950;42.744;23.174;2023-03-16T15:19:43;3.20;99.90
15700;DHT22;7950;42.744;23.174;2023-03-16T15:22:12;3.20;99.90
15700;DHT22;7950;42.744;23.174;2023-03-16T15:24:42;3.20;99.90
15700;DHT22;7950;42.744;23.174;2023-03-16T15:27:21;3.10;99.90
15700;DHT22;7950;42.744;23.174;2023-03-16T15:29:50;3.10;99.90
15700;DHT22;7950;42.744;23.174;2023-03-16T15:32:18;3.10;99.90
15700;DHT22;7950;42.744;23.174;2023-03-16T15:34:47;3.00;99.90
15700;DHT22;7950;42.744;23.174;2023-03-16T15:37:40;3.00;99.90
15700;DHT22;7950;42.744;23.174;2023-03-16T15:40:19;2.90;99.90
15700;DHT22;7950;42.744;23.174;2023-03-16T15:42:48;2.90;99.90
15700;DHT22;7950;42.744;23.174;2023-03-16T15:45:19;2.80;99.90
15700;DHT22;7950;42.744;23.174;2023-03-16T15:47:49;2.80;99.90
15700;DHT22;7950;42.744;23.174;2023-03-16T15:50:19;2.80;99.90
15700;DHT22;7950;42.744;23.174;2023-03-16T15:52:52;2.70;99.90
15700;DHT22;7950;42.744;23.174;2023-03-16T15:55:29;2.60;99.90
15700;DHT22;7950;42.744;23.174;2023-03-16T15:58:01;2.60;99.90
15700;DHT22;7950;42.744;23.174;2023-03-16T16:00:30;2.60;99.90
15700;DHT22;7950;42.744;23.174;2023-03-16T16:03:01;2.50;99.90
15700;DHT22;7950;42.744;23.174;2023-03-16T16:05:30;2.50;99.90
15700;DHT22;7950;42.744;23.174;2023-03-16T16:07:59;2.50;99.90
15700;DHT22;7950;42.744;23.174;2023-03-16T16:10:29;2.50;99.90
15700;DHT22;7950;42.744;23.174;2023-03-16T16:13:02;2.50;99.90
15700;DHT22;7950;42.744;23.174;2023-03-16T16:15:33;2.40;99.90
15700;DHT22;7950;42.744;23.174;2023-03-16T16:18:22;2.50;99.90
15700;DHT22;7950;42.744;23.174;2023-03-16T16:20:52;2.50;99.90
15700;DHT22;7950;42.744;23.174;2023-03-16T16:23:20;2.50;99.90
15700;DHT22;7950;42.744;23.174;2023-03-16T16:25:51;2.50;99.90
15700;DHT22;7950;42.744;23.174;2023-03-16T16:28:22;2.50;99.90